createdAt,value
2022-10-31T00:00:43.011Z,13.62
2022-10-31T00:01:40.364Z,14.47
2022-10-31T00:02:37.200Z,14.72
2022-10-31T00:03:33.937Z,14.44
2022-10-31T00:04:30.783Z,13.52
2022-10-31T00:05:27.459Z,14.49
2022-10-31T00:06:25.607Z,14.06
2022-10-31T00:07:22.277Z,14.51
2022-10-31T00:08:20.026Z,14.02
2022-10-31T00:09:16.700Z,14.49
2022-10-31T00:10:13.428Z,14.52
2022-10-31T00:11:11.732Z,14.49
2022-10-31T00:12:08.400Z,14.39
2022-10-31T00:13:05.100Z,14.68
2022-10-31T00:14:01.975Z,14.62
2022-10-31T00:14:58.682Z,14.57
2022-10-31T00:15:55.364Z,14.72
2022-10-31T00:16:52.093Z,11.97
2022-10-31T00:17:48.789Z,14.56
2022-10-31T00:18:50.376Z,13.25
2022-10-31T00:19:47.136Z,13.62
2022-10-31T00:20:43.848Z,14.54
2022-10-31T00:21:40.755Z,13.69
2022-10-31T00:22:37.455Z,14.29
2022-10-31T00:23:34.146Z,13.59
2022-10-31T00:24:30.816Z,14.70
2022-10-31T00:25:29.509Z,14.42
2022-10-31T00:26:28.767Z,14.35
2022-10-31T00:27:25.470Z,14.87
2022-10-31T00:28:22.175Z,14.56
2022-10-31T00:29:18.857Z,14.81
2022-10-31T00:30:15.645Z,14.62
2022-10-31T00:31:13.714Z,14.89
2022-10-31T00:32:10.409Z,14.89
2022-10-31T00:33:07.182Z,14.57
2022-10-31T00:34:04.602Z,14.56
2022-10-31T00:35:01.327Z,13.94
2022-10-31T00:35:58.058Z,14.71
2022-10-31T00:36:54.797Z,14.75
2022-10-31T00:37:52.860Z,14.63
2022-10-31T00:38:50.308Z,13.92
2022-10-31T00:39:49.898Z,14.77
2022-10-31T00:40:46.634Z,14.84
2022-10-31T00:41:43.326Z,14.22
2022-10-31T00:42:42.507Z,14.31
2022-10-31T00:43:39.363Z,14.59
2022-10-31T00:44:35.993Z,14.86
2022-10-31T00:45:32.691Z,14.74
2022-10-31T00:46:29.390Z,14.93
2022-10-31T00:47:26.099Z,14.76
2022-10-31T00:48:22.805Z,15.06
2022-10-31T00:49:19.487Z,15.00
2022-10-31T00:50:16.221Z,14.68
2022-10-31T00:51:13.486Z,14.67
2022-10-31T00:52:10.178Z,14.46
2022-10-31T00:53:07.240Z,14.93
2022-10-31T00:54:04.007Z,14.97
2022-10-31T00:55:00.933Z,14.92
2022-10-31T00:55:57.603Z,15.03
2022-10-31T00:56:54.320Z,14.72
2022-10-31T00:57:50.977Z,14.70
2022-10-31T00:58:47.741Z,14.96
2022-10-31T00:59:44.455Z,14.48
2022-10-31T01:00:41.184Z,15.03
2022-10-31T01:01:37.953Z,14.99
2022-10-31T01:02:34.913Z,15.15
2022-10-31T01:03:33.900Z,14.44
2022-10-31T01:04:30.580Z,14.48
2022-10-31T01:05:27.477Z,14.39
2022-10-31T01:06:24.205Z,15.13
2022-10-31T01:07:20.854Z,15.12
2022-10-31T01:08:17.551Z,15.14
2022-10-31T01:09:14.229Z,14.86
2022-10-31T01:10:12.367Z,15.06
2022-10-31T01:11:13.506Z,15.08
2022-10-31T01:12:10.246Z,15.01
2022-10-31T01:13:06.916Z,14.95
2022-10-31T01:14:03.701Z,14.92
2022-10-31T01:15:00.364Z,14.98
2022-10-31T01:15:59.136Z,15.06
2022-10-31T01:16:56.004Z,15.04
2022-10-31T01:17:52.701Z,15.02
2022-10-31T01:18:49.589Z,13.92
2022-10-31T01:19:46.296Z,14.91
2022-10-31T01:20:42.960Z,15.07
2022-10-31T01:21:39.648Z,15.10
2022-10-31T01:22:36.357Z,15.11
2022-10-31T01:23:33.867Z,15.11
2022-10-31T01:24:30.558Z,14.65
2022-10-31T01:25:27.312Z,15.13
2022-10-31T01:26:30.897Z,14.66
2022-10-31T01:27:27.938Z,14.59
2022-10-31T01:29:26.260Z,14.94
2022-10-31T01:30:22.957Z,15.04
2022-10-31T01:31:22.097Z,14.94
2022-10-31T01:32:18.795Z,14.24
2022-10-31T01:33:15.476Z,14.90
2022-10-31T01:34:15.456Z,14.76
2022-10-31T01:35:12.136Z,15.01
2022-10-31T01:36:20.235Z,14.97
2022-10-31T01:37:17.224Z,15.08
2022-10-31T01:38:13.911Z,15.16
2022-10-31T01:39:13.147Z,14.96
2022-10-31T01:40:10.468Z,15.15
2022-10-31T01:41:07.408Z,15.23
2022-10-31T01:42:04.317Z,15.02
2022-10-31T01:43:01.412Z,15.35
2022-10-31T01:44:23.936Z,15.22
2022-10-31T01:45:21.078Z,14.86
2022-10-31T01:46:24.913Z,14.92
2022-10-31T01:47:41.380Z,15.21
2022-10-31T01:48:41.480Z,15.22
2022-10-31T01:49:54.476Z,15.40
2022-10-31T01:50:55.094Z,15.31
2022-10-31T01:51:58.734Z,15.00
2022-10-31T01:52:56.609Z,15.39
2022-10-31T01:54:01.595Z,15.10
2022-10-31T01:55:08.805Z,14.95
2022-10-31T01:56:06.141Z,14.26
2022-10-31T01:57:08.132Z,14.25
2022-10-31T01:58:33.949Z,15.39
2022-10-31T01:59:35.504Z,15.41
2022-10-31T02:00:32.407Z,15.35
2022-10-31T02:01:30.612Z,15.38
2022-10-31T02:02:31.329Z,15.21
2022-10-31T02:03:30.584Z,15.29
2022-10-31T02:04:29.024Z,15.48
2022-10-31T02:05:30.475Z,15.24
2022-10-31T02:06:38.807Z,14.96
2022-10-31T02:07:46.914Z,15.41
2022-10-31T02:08:44.805Z,14.92
2022-10-31T02:09:42.114Z,15.37
2022-10-31T02:10:39.108Z,15.40
2022-10-31T02:11:37.683Z,13.43
2022-10-31T02:12:39.286Z,15.44
2022-10-31T02:13:35.997Z,14.91
2022-10-31T02:14:32.907Z,15.37
2022-10-31T02:15:31.043Z,15.24
2022-10-31T02:16:27.782Z,15.29
2022-10-31T02:17:24.630Z,15.13
2022-10-31T02:18:23.733Z,15.13
2022-10-31T02:19:58.831Z,15.41
2022-10-31T02:21:10.762Z,15.41
2022-10-31T02:22:27.920Z,15.35
2022-10-31T02:23:40.281Z,15.44
2022-10-31T02:25:06.884Z,15.49
2022-10-31T02:26:38.785Z,15.55
2022-10-31T02:27:52.417Z,15.57
2022-10-31T02:28:51.696Z,15.43
2022-10-31T02:29:54.324Z,15.35
2022-10-31T02:31:30.544Z,15.14
2022-10-31T02:32:38.257Z,15.33
2022-10-31T02:33:49.668Z,14.71
2022-10-31T02:35:03.392Z,15.40
2022-10-31T02:36:13.875Z,15.37
2022-10-31T02:37:33.478Z,15.44
2022-10-31T02:38:42.441Z,15.22
2022-10-31T02:39:50.965Z,15.33
2022-10-31T02:41:05.303Z,15.20
2022-10-31T02:42:08.855Z,15.45
2022-10-31T02:43:36.277Z,15.46
2022-10-31T02:44:44.929Z,15.42
2022-10-31T02:45:59.602Z,14.86
2022-10-31T02:47:23.332Z,15.48
2022-10-31T02:48:26.384Z,15.15
2022-10-31T02:49:37.649Z,15.16
2022-10-31T02:50:40.257Z,15.06
2022-10-31T02:51:37.845Z,15.31
2022-10-31T02:52:36.766Z,15.03
2022-10-31T02:53:38.683Z,14.10
2022-10-31T02:54:35.441Z,15.26
2022-10-31T02:55:32.089Z,15.30
2022-10-31T02:56:28.770Z,14.77
2022-10-31T02:57:35.609Z,15.32
2022-10-31T02:58:39.649Z,14.93
2022-10-31T02:59:45.912Z,14.40
2022-10-31T03:01:09.007Z,15.05
2022-10-31T03:02:11.789Z,15.18
2022-10-31T03:03:20.473Z,15.05
2022-10-31T03:04:30.324Z,14.99
2022-10-31T03:05:38.843Z,15.11
2022-10-31T03:07:10.921Z,15.15
2022-10-31T03:08:14.389Z,14.67
2022-10-31T03:09:24.263Z,15.03
2022-10-31T03:10:42.823Z,15.10
2022-10-31T03:12:05.652Z,15.10
2022-10-31T03:14:39.032Z,13.94
2022-10-31T03:15:45.608Z,14.86
2022-10-31T03:16:49.921Z,14.91
2022-10-31T03:18:02.049Z,14.92
2022-10-31T03:19:08.821Z,15.03
2022-10-31T03:20:10.715Z,14.97
2022-10-31T03:21:21.364Z,14.83
2022-10-31T03:22:26.793Z,14.72
2022-10-31T03:23:26.708Z,14.36
2022-10-31T03:24:30.786Z,14.80
2022-10-31T03:25:28.826Z,14.81
2022-10-31T03:26:26.827Z,14.76
2022-10-31T03:27:28.760Z,14.59
2022-10-31T03:28:34.935Z,14.48
2022-10-31T03:29:37.574Z,14.47
2022-10-31T03:30:39.686Z,13.52
2022-10-31T03:31:56.513Z,13.49
2022-10-31T03:32:58.882Z,14.55
2022-10-31T03:34:01.087Z,14.15
2022-10-31T03:35:01.925Z,14.43
2022-10-31T03:36:03.827Z,14.55
2022-10-31T03:37:04.728Z,13.37
2022-10-31T03:38:05.519Z,14.23
2022-10-31T03:39:10.705Z,14.39
2022-10-31T03:40:10.869Z,14.08
2022-10-31T03:41:14.747Z,13.85
2022-10-31T03:42:16.896Z,13.01
2022-10-31T03:44:28.094Z,12.95
2022-10-31T03:45:32.041Z,13.84
2022-10-31T03:46:29.490Z,13.85
2022-10-31T03:47:27.322Z,13.50
2022-10-31T03:48:25.388Z,13.33
2022-10-31T03:49:22.835Z,13.76
2022-10-31T03:50:21.216Z,13.40
2022-10-31T03:51:41.148Z,12.73
2022-10-31T03:52:51.746Z,13.53
2022-10-31T03:53:57.549Z,13.55
2022-10-31T03:55:00.211Z,13.73
2022-10-31T03:56:35.243Z,13.32
2022-10-31T03:58:01.422Z,13.16
2022-10-31T03:59:01.065Z,13.12
2022-10-31T04:00:03.751Z,13.18
2022-10-31T04:01:04.632Z,13.39
2022-10-31T04:02:11.168Z,13.34
2022-10-31T04:03:14.092Z,13.27
2022-10-31T04:04:12.575Z,12.96
2022-10-31T04:05:13.383Z,13.41
2022-10-31T04:06:15.653Z,12.61
2022-10-31T04:07:15.878Z,13.42
2022-10-31T04:08:18.023Z,13.49
2022-10-31T04:09:17.407Z,13.32
2022-10-31T04:10:17.021Z,13.22
2022-10-31T04:11:18.788Z,13.06
2022-10-31T04:12:17.594Z,12.74
2022-10-31T04:14:26.255Z,13.08
2022-10-31T04:15:25.000Z,12.65
2022-10-31T04:16:24.200Z,13.05
2022-10-31T04:17:26.141Z,12.56
2022-10-31T04:18:26.329Z,13.00
2022-10-31T04:19:23.181Z,13.16
2022-10-31T04:20:29.881Z,12.51
2022-10-31T04:21:31.923Z,12.81
2022-10-31T04:22:28.810Z,13.46
2022-10-31T04:23:27.769Z,13.13
2022-10-31T04:24:24.444Z,13.42
2022-10-31T04:25:21.140Z,12.64
2022-10-31T04:26:17.826Z,13.19
2022-10-31T04:27:14.531Z,13.28
2022-10-31T04:28:11.239Z,13.11
2022-10-31T04:29:07.970Z,13.17
2022-10-31T04:30:05.247Z,13.19
2022-10-31T04:31:02.007Z,13.14
2022-10-31T04:31:58.767Z,12.79
2022-10-31T04:32:55.457Z,13.12
2022-10-31T04:33:52.140Z,12.55
2022-10-31T04:34:48.857Z,13.23
2022-10-31T04:35:46.446Z,11.26
2022-10-31T04:36:43.137Z,13.16
2022-10-31T04:37:39.858Z,12.81
2022-10-31T04:38:36.782Z,13.01
2022-10-31T04:39:33.438Z,12.94
2022-10-31T04:40:30.173Z,13.09
2022-10-31T04:41:26.867Z,12.96
2022-10-31T04:42:23.585Z,13.01
2022-10-31T04:44:21.877Z,12.71
2022-10-31T04:45:21.207Z,13.13
2022-10-31T04:46:18.311Z,12.56
2022-10-31T04:47:15.169Z,12.60
2022-10-31T04:48:11.858Z,12.75
2022-10-31T04:49:08.537Z,12.77
2022-10-31T04:50:05.639Z,12.74
2022-10-31T04:51:03.669Z,12.59
2022-10-31T04:52:00.349Z,13.07
2022-10-31T04:52:57.016Z,13.12
2022-10-31T04:53:53.721Z,12.94
2022-10-31T04:54:50.453Z,12.91
2022-10-31T04:55:47.331Z,13.04
2022-10-31T04:56:44.026Z,13.12
2022-10-31T04:57:45.944Z,12.96
2022-10-31T04:58:42.658Z,13.19
2022-10-31T04:59:39.411Z,12.95
2022-10-31T05:00:36.113Z,11.22
2022-10-31T05:01:32.894Z,11.72
2022-10-31T05:02:29.682Z,11.88
2022-10-31T05:03:26.492Z,12.46
2022-10-31T05:04:23.628Z,12.89
2022-10-31T05:05:25.677Z,12.72
2022-10-31T05:06:22.377Z,13.02
2022-10-31T05:07:19.085Z,13.17
2022-10-31T05:08:16.050Z,13.19
2022-10-31T05:09:12.769Z,12.93
2022-10-31T05:10:19.301Z,12.59
2022-10-31T05:11:16.068Z,11.68
2022-10-31T05:12:12.826Z,12.94
2022-10-31T05:13:09.824Z,12.04
2022-10-31T05:14:06.560Z,12.37
2022-10-31T05:15:03.865Z,13.23
2022-10-31T05:16:00.582Z,13.25
2022-10-31T05:16:57.271Z,13.16
2022-10-31T05:17:55.210Z,12.74
2022-10-31T05:18:51.884Z,12.67
2022-10-31T05:19:48.591Z,12.69
2022-10-31T05:20:45.271Z,13.09
2022-10-31T05:21:41.965Z,12.78
2022-10-31T05:22:46.555Z,12.68
2022-10-31T05:23:47.461Z,12.84
2022-10-31T05:24:45.265Z,12.83
2022-10-31T05:25:42.276Z,12.82
2022-10-31T05:26:38.994Z,11.66
2022-10-31T05:27:35.713Z,12.45
2022-10-31T05:28:32.437Z,12.73
2022-10-31T05:29:29.218Z,12.62
2022-10-31T05:30:29.717Z,12.57
2022-10-31T05:31:26.387Z,12.57
2022-10-31T05:32:23.121Z,12.29
2022-10-31T05:33:19.871Z,12.67
2022-10-31T05:34:16.614Z,12.66
2022-10-31T05:35:16.325Z,12.50
2022-10-31T05:36:13.056Z,12.86
2022-10-31T05:37:09.876Z,11.96
2022-10-31T05:38:06.545Z,12.76
2022-10-31T05:39:03.830Z,11.14
2022-10-31T05:40:05.313Z,13.19
2022-10-31T05:41:05.049Z,12.09
2022-10-31T05:42:01.726Z,13.14
2022-10-31T05:43:01.679Z,12.50
2022-10-31T05:43:58.558Z,12.91
2022-10-31T05:44:55.268Z,12.61
2022-10-31T05:45:56.396Z,13.05
2022-10-31T05:46:53.097Z,12.66
2022-10-31T05:47:52.826Z,12.89
2022-10-31T05:48:49.584Z,12.63
2022-10-31T05:49:46.304Z,12.93
2022-10-31T05:50:43.065Z,13.26
2022-10-31T05:51:39.791Z,13.28
2022-10-31T05:52:37.154Z,12.58
2022-10-31T05:53:33.854Z,12.10
2022-10-31T05:54:30.549Z,12.59
2022-10-31T05:55:28.542Z,12.92
2022-10-31T05:56:25.252Z,11.81
2022-10-31T05:57:22.019Z,12.13
2022-10-31T05:58:18.758Z,12.02
2022-10-31T05:59:15.480Z,12.80
2022-10-31T06:00:12.794Z,12.79
2022-10-31T06:01:09.563Z,12.78
2022-10-31T06:02:06.292Z,12.73
2022-10-31T06:03:06.110Z,12.68
2022-10-31T06:04:02.918Z,12.93
2022-10-31T06:04:59.673Z,13.11
2022-10-31T06:05:56.554Z,12.66
2022-10-31T06:06:53.323Z,13.00
2022-10-31T06:07:50.000Z,13.14
2022-10-31T06:08:46.683Z,13.02
2022-10-31T06:09:43.436Z,13.36
2022-10-31T06:10:40.143Z,9.93
2022-10-31T06:11:36.823Z,13.45
2022-10-31T06:12:38.428Z,12.99
2022-10-31T06:13:35.113Z,12.88
2022-10-31T06:14:31.864Z,12.90
2022-10-31T06:15:28.609Z,12.33
2022-10-31T06:16:25.340Z,13.15
2022-10-31T06:17:22.032Z,13.45
2022-10-31T06:18:18.717Z,13.51
2022-10-31T06:19:15.467Z,13.39
2022-10-31T06:20:12.740Z,13.63
2022-10-31T06:21:10.771Z,13.60
2022-10-31T06:22:09.281Z,13.59
2022-10-31T06:23:06.186Z,13.49
2022-10-31T06:24:03.033Z,13.53
2022-10-31T06:25:00.026Z,13.03
2022-10-31T06:25:56.731Z,13.65
2022-10-31T06:26:53.415Z,13.64
2022-10-31T06:27:50.196Z,13.11
2022-10-31T06:28:46.896Z,13.76
2022-10-31T06:29:43.669Z,13.86
2022-10-31T06:30:40.414Z,13.88
2022-10-31T06:31:37.125Z,13.79
2022-10-31T06:32:33.806Z,13.84
2022-10-31T06:33:30.544Z,13.69
2022-10-31T06:34:27.291Z,13.85
2022-10-31T06:35:23.992Z,13.93
2022-10-31T06:36:20.766Z,14.00
2022-10-31T06:37:17.568Z,12.80
2022-10-31T06:38:15.017Z,13.86
2022-10-31T06:39:11.706Z,13.01
2022-10-31T06:40:08.913Z,13.82
2022-10-31T06:41:06.981Z,13.83
2022-10-31T06:42:04.888Z,13.74
2022-10-31T06:43:02.501Z,13.91
2022-10-31T06:44:00.576Z,12.69
2022-10-31T06:44:58.946Z,14.04
2022-10-31T06:45:55.617Z,13.70
2022-10-31T06:46:52.301Z,14.05
2022-10-31T06:48:15.601Z,14.08
2022-10-31T06:49:10.788Z,14.13
2022-10-31T06:50:07.900Z,14.27
2022-10-31T06:51:04.659Z,14.15
2022-10-31T06:52:01.477Z,13.84
2022-10-31T06:52:59.888Z,13.48
2022-10-31T06:53:56.623Z,13.20
2022-10-31T06:54:53.328Z,14.24
2022-10-31T06:55:50.135Z,14.17
2022-10-31T06:56:48.339Z,13.66
2022-10-31T06:57:51.487Z,14.13
2022-10-31T06:58:48.461Z,14.23
2022-10-31T06:59:45.190Z,13.21
2022-10-31T07:00:42.037Z,13.89
2022-10-31T07:01:38.843Z,13.82
2022-10-31T07:02:35.663Z,14.28
2022-10-31T07:03:32.500Z,14.05
2022-10-31T07:04:29.185Z,14.31
2022-10-31T07:05:27.092Z,14.31
2022-10-31T07:06:23.825Z,14.07
2022-10-31T07:07:22.271Z,14.42
2022-10-31T07:08:18.979Z,14.13
2022-10-31T07:09:15.653Z,14.40
2022-10-31T07:11:14.045Z,13.80
2022-10-31T07:12:10.766Z,14.56
2022-10-31T07:13:13.155Z,14.70
2022-10-31T07:14:09.893Z,12.20
2022-10-31T07:15:07.100Z,14.67
2022-10-31T07:16:07.606Z,14.74
2022-10-31T07:17:04.393Z,14.64
2022-10-31T07:18:05.063Z,14.41
2022-10-31T07:19:01.814Z,14.82
2022-10-31T07:19:58.509Z,14.01
2022-10-31T07:20:55.743Z,14.57
2022-10-31T07:21:52.419Z,15.03
2022-10-31T07:22:59.011Z,15.09
2022-10-31T07:23:55.799Z,15.00
2022-10-31T07:24:52.482Z,15.11
2022-10-31T07:25:49.202Z,15.24
2022-10-31T07:26:48.399Z,15.36
2022-10-31T07:27:45.215Z,14.99
2022-10-31T07:28:41.899Z,15.35
2022-10-31T07:29:38.590Z,15.39
2022-10-31T07:30:35.335Z,15.37
2022-10-31T07:31:32.058Z,15.39
2022-10-31T07:32:28.756Z,15.58
2022-10-31T07:33:29.088Z,15.60
2022-10-31T07:34:25.808Z,15.43
2022-10-31T07:35:25.008Z,15.54
2022-10-31T07:36:21.698Z,15.08
2022-10-31T07:37:18.389Z,15.59
2022-10-31T07:38:16.231Z,14.45
2022-10-31T07:39:13.088Z,15.47
2022-10-31T07:40:10.706Z,15.38
2022-10-31T07:41:07.451Z,15.53
2022-10-31T07:42:04.227Z,15.40
2022-10-31T07:43:00.932Z,15.70
2022-10-31T07:43:57.656Z,15.46
2022-10-31T07:44:56.839Z,15.22
2022-10-31T07:45:55.005Z,15.62
2022-10-31T07:46:51.775Z,14.94
2022-10-31T07:47:53.368Z,14.64
2022-10-31T07:48:50.068Z,15.69
2022-10-31T07:49:46.815Z,15.04
2022-10-31T07:50:43.617Z,15.90
2022-10-31T07:51:45.548Z,14.92
2022-10-31T07:52:43.477Z,15.68
2022-10-31T07:53:58.703Z,15.63
2022-10-31T07:54:55.392Z,15.47
2022-10-31T07:55:52.123Z,15.78
2022-10-31T07:56:48.836Z,15.75
2022-10-31T07:57:45.546Z,15.85
2022-10-31T07:58:42.288Z,15.73
2022-10-31T07:59:39.045Z,15.73
2022-10-31T08:00:38.147Z,15.90
2022-10-31T08:01:34.917Z,15.98
2022-10-31T08:02:31.702Z,15.66
2022-10-31T08:03:28.455Z,15.94
2022-10-31T08:04:25.145Z,15.79
2022-10-31T08:05:21.846Z,15.76
2022-10-31T08:06:18.582Z,16.16
2022-10-31T08:07:15.328Z,16.20
2022-10-31T08:08:12.415Z,16.17
2022-10-31T08:09:09.164Z,15.75
2022-10-31T08:10:06.589Z,16.20
2022-10-31T08:11:03.478Z,16.11
2022-10-31T08:12:00.275Z,16.16
2022-10-31T08:12:57.750Z,16.36
2022-10-31T08:13:54.489Z,16.39
2022-10-31T08:14:51.428Z,16.42
2022-10-31T08:15:51.344Z,16.57
2022-10-31T08:16:48.026Z,16.62
2022-10-31T08:17:44.701Z,16.43
2022-10-31T08:18:41.483Z,16.24
2022-10-31T08:19:38.205Z,16.45
2022-10-31T08:20:34.952Z,16.07
2022-10-31T08:21:32.016Z,16.76
2022-10-31T08:22:28.778Z,16.59
2022-10-31T08:23:25.544Z,16.69
2022-10-31T08:24:22.934Z,16.47
2022-10-31T08:25:19.578Z,16.77
2022-10-31T08:26:16.268Z,17.00
2022-10-31T08:27:13.075Z,16.81
2022-10-31T08:28:12.716Z,17.02
2022-10-31T08:29:09.790Z,16.80
2022-10-31T08:30:07.257Z,16.71
2022-10-31T08:31:04.087Z,17.05
2022-10-31T08:32:00.825Z,17.22
2022-10-31T08:33:06.044Z,17.08
2022-10-31T08:34:03.412Z,16.91
2022-10-31T08:35:00.112Z,17.29
2022-10-31T08:35:59.057Z,17.29
2022-10-31T08:36:55.785Z,17.36
2022-10-31T08:37:58.758Z,17.42
2022-10-31T08:39:01.436Z,17.20
2022-10-31T08:39:58.696Z,17.54
2022-10-31T08:40:55.413Z,17.46
2022-10-31T08:41:52.115Z,17.44
2022-10-31T08:42:48.839Z,17.39
2022-10-31T08:43:45.625Z,17.06
2022-10-31T08:44:42.368Z,17.19
2022-10-31T08:45:39.109Z,17.58
2022-10-31T08:46:36.853Z,17.68
2022-10-31T08:47:33.573Z,17.72
2022-10-31T08:48:30.421Z,17.73
2022-10-31T08:49:27.155Z,17.45
2022-10-31T08:50:24.017Z,17.84
2022-10-31T08:51:20.819Z,17.43
2022-10-31T08:52:17.517Z,17.90
2022-10-31T08:53:17.490Z,17.46
2022-10-31T08:54:14.225Z,17.98
2022-10-31T08:55:10.892Z,17.00
2022-10-31T08:56:07.906Z,17.02
2022-10-31T08:57:05.124Z,17.71
2022-10-31T08:58:03.745Z,17.93
2022-10-31T08:59:00.863Z,18.05
2022-10-31T08:59:57.637Z,17.33
2022-10-31T09:00:57.354Z,18.07
2022-10-31T09:01:54.284Z,17.36
2022-10-31T09:02:58.794Z,17.18
2022-10-31T09:03:55.508Z,17.50
2022-10-31T09:04:52.229Z,17.18
2022-10-31T09:05:49.843Z,17.58
2022-10-31T09:07:08.019Z,18.31
2022-10-31T09:08:06.184Z,18.28
2022-10-31T09:09:02.949Z,17.52
2022-10-31T09:09:59.684Z,18.44
2022-10-31T09:10:58.723Z,18.53
2022-10-31T09:11:55.505Z,18.38
2022-10-31T09:13:16.065Z,18.56
2022-10-31T09:14:12.836Z,18.36
2022-10-31T09:15:10.238Z,18.61
2022-10-31T09:16:07.304Z,18.68
2022-10-31T09:17:04.097Z,18.51
2022-10-31T09:18:01.951Z,18.81
2022-10-31T09:18:58.863Z,18.72
2022-10-31T09:19:55.927Z,18.72
2022-10-31T09:20:52.654Z,18.04
2022-10-31T09:21:53.480Z,17.89
2022-10-31T09:22:58.045Z,18.54
2022-10-31T09:23:54.943Z,18.80
2022-10-31T09:24:51.643Z,18.78
2022-10-31T09:25:51.131Z,18.99
2022-10-31T09:26:48.012Z,18.82
2022-10-31T09:27:44.759Z,18.65
2022-10-31T09:28:41.432Z,18.78
2022-10-31T09:29:38.136Z,19.06
2022-10-31T09:30:36.408Z,19.17
2022-10-31T09:31:33.137Z,19.09
2022-10-31T09:32:29.839Z,18.48
2022-10-31T09:33:26.600Z,18.16
2022-10-31T09:34:23.761Z,19.08
2022-10-31T09:35:23.149Z,18.42
2022-10-31T09:36:22.360Z,19.26
2022-10-31T09:37:19.083Z,19.28
2022-10-31T09:38:20.173Z,18.33
2022-10-31T09:39:16.940Z,19.25
2022-10-31T09:40:13.951Z,18.21
2022-10-31T09:41:25.080Z,19.36
2022-10-31T09:42:40.962Z,19.41
2022-10-31T09:43:56.177Z,19.46
2022-10-31T09:45:38.325Z,19.38
2022-10-31T09:46:58.183Z,19.55
2022-10-31T09:48:28.134Z,19.16
2022-10-31T09:49:43.773Z,19.53
2022-10-31T09:51:24.204Z,19.62
2022-10-31T09:52:32.211Z,18.85
2022-10-31T09:53:41.112Z,19.75
2022-10-31T09:54:54.191Z,18.86
2022-10-31T09:55:54.030Z,19.25
2022-10-31T09:56:51.092Z,18.77
2022-10-31T09:57:49.374Z,18.82
2022-10-31T09:58:48.771Z,19.81
2022-10-31T09:59:50.345Z,19.69
2022-10-31T10:00:49.303Z,19.61
2022-10-31T10:02:09.233Z,19.93
2022-10-31T10:03:31.229Z,19.95
2022-10-31T10:04:44.589Z,19.92
2022-10-31T10:06:10.316Z,19.90
2022-10-31T10:07:40.555Z,19.48
2022-10-31T10:08:37.564Z,20.02
2022-10-31T10:09:34.352Z,19.94
2022-10-31T10:10:39.791Z,19.97
2022-10-31T10:11:45.596Z,20.03
2022-10-31T10:12:59.418Z,20.12
2022-10-31T10:14:20.755Z,19.34
2022-10-31T10:15:32.877Z,20.26
2022-10-31T10:16:36.403Z,20.32
2022-10-31T10:17:35.982Z,20.41
2022-10-31T10:18:50.469Z,20.40
2022-10-31T10:19:49.937Z,20.53
2022-10-31T10:21:00.559Z,20.56
2022-10-31T10:21:57.205Z,20.50
2022-10-31T10:23:00.503Z,20.42
2022-10-31T10:24:42.124Z,20.55
2022-10-31T10:25:40.948Z,20.54
2022-10-31T10:26:41.497Z,20.38
2022-10-31T10:27:57.860Z,20.24
2022-10-31T10:29:02.381Z,20.45
2022-10-31T10:30:16.149Z,20.28
2022-10-31T10:31:17.525Z,20.01
2022-10-31T10:32:24.434Z,20.12
2022-10-31T10:33:36.339Z,20.56
2022-10-31T10:34:45.383Z,20.53
2022-10-31T10:36:05.614Z,20.47
2022-10-31T10:37:27.944Z,20.55
2022-10-31T10:38:45.585Z,20.70
2022-10-31T10:39:48.474Z,20.64
2022-10-31T10:40:46.681Z,20.28
2022-10-31T10:42:09.179Z,20.75
2022-10-31T10:43:24.165Z,20.72
2022-10-31T10:44:21.116Z,20.64
2022-10-31T10:45:39.332Z,20.86
2022-10-31T10:47:07.249Z,20.73
2022-10-31T10:48:42.539Z,21.07
2022-10-31T10:49:53.203Z,21.10
2022-10-31T10:50:53.420Z,20.93
2022-10-31T10:52:19.546Z,20.92
2022-10-31T10:54:06.539Z,20.94
2022-10-31T10:55:16.219Z,21.00
2022-10-31T10:56:22.597Z,20.77
2022-10-31T10:57:43.372Z,21.16
2022-10-31T10:58:43.572Z,20.28
2022-10-31T10:59:40.492Z,21.24
2022-10-31T11:00:44.189Z,21.24
2022-10-31T11:01:43.122Z,21.22
2022-10-31T11:02:41.209Z,21.24
2022-10-31T11:03:42.459Z,20.88
2022-10-31T11:04:42.017Z,21.22
2022-10-31T11:05:52.509Z,20.29
2022-10-31T11:07:02.121Z,20.37
2022-10-31T11:07:58.899Z,21.33
2022-10-31T11:08:55.640Z,21.34
2022-10-31T11:10:03.181Z,21.21
2022-10-31T11:11:20.464Z,21.40
2022-10-31T11:12:34.479Z,21.33
2022-10-31T11:13:33.869Z,21.27
2022-10-31T11:14:30.667Z,21.03
2022-10-31T11:15:29.083Z,21.18
2022-10-31T11:16:25.826Z,21.42
2022-10-31T11:17:35.256Z,21.43
2022-10-31T11:18:35.868Z,21.46
2022-10-31T11:19:32.723Z,21.51
2022-10-31T11:20:35.521Z,21.24
2022-10-31T11:21:34.451Z,21.63
2022-10-31T11:22:31.506Z,20.70
2022-10-31T11:23:29.887Z,20.94
2022-10-31T11:24:28.478Z,21.21
2022-10-31T11:25:27.752Z,21.63
2022-10-31T11:26:24.427Z,21.55
2022-10-31T11:27:23.393Z,21.51
2022-10-31T11:28:20.093Z,21.52
2022-10-31T11:29:21.256Z,20.67
2022-10-31T11:30:17.967Z,21.49
2022-10-31T11:31:17.252Z,21.22
2022-10-31T11:32:25.707Z,21.40
2022-10-31T11:33:54.600Z,21.71
2022-10-31T11:34:57.766Z,21.68
2022-10-31T11:35:58.039Z,21.70
2022-10-31T11:37:02.874Z,21.77
2022-10-31T11:38:03.441Z,21.55
2022-10-31T11:39:04.080Z,21.71
2022-10-31T11:40:06.306Z,21.74
2022-10-31T11:41:12.063Z,21.55
2022-10-31T11:42:09.263Z,21.59
2022-10-31T11:43:06.010Z,21.17
2022-10-31T11:44:12.995Z,21.20
2022-10-31T11:45:32.105Z,21.88
2022-10-31T11:46:34.889Z,21.83
2022-10-31T11:47:37.796Z,21.27
2022-10-31T11:48:34.622Z,21.08
2022-10-31T11:49:37.476Z,21.59
2022-10-31T11:50:40.553Z,21.74
2022-10-31T11:51:38.629Z,21.77
2022-10-31T11:52:41.007Z,21.52
2022-10-31T11:53:37.782Z,20.85
2022-10-31T11:54:51.998Z,21.77
2022-10-31T11:56:15.073Z,21.72
2022-10-31T11:57:26.618Z,21.81
2022-10-31T11:58:27.570Z,21.86
2022-10-31T11:59:29.092Z,21.82
2022-10-31T12:00:34.964Z,20.04
2022-10-31T12:01:34.056Z,21.75
2022-10-31T12:02:31.743Z,20.78
2022-10-31T12:03:44.616Z,21.88
2022-10-31T12:04:52.431Z,21.83
2022-10-31T12:06:06.082Z,21.51
2022-10-31T12:07:03.264Z,21.60
2022-10-31T12:08:04.291Z,22.03
2022-10-31T12:09:01.743Z,21.19
2022-10-31T12:09:58.719Z,22.18
2022-10-31T12:11:05.685Z,21.00
2022-10-31T12:12:24.860Z,22.15
2022-10-31T12:13:40.310Z,22.11
2022-10-31T12:14:58.370Z,22.18
2022-10-31T12:16:07.119Z,22.06
2022-10-31T12:17:17.919Z,22.18
2022-10-31T12:18:23.416Z,22.18
2022-10-31T12:19:37.077Z,21.95
2022-10-31T12:21:10.416Z,22.21
2022-10-31T12:22:19.265Z,21.87
2022-10-31T12:23:51.128Z,22.06
2022-10-31T12:25:05.864Z,22.11
2022-10-31T12:26:05.608Z,22.13
2022-10-31T12:27:10.028Z,22.15
2022-10-31T12:28:06.817Z,22.15
2022-10-31T12:29:18.783Z,22.19
2022-10-31T12:30:52.117Z,21.38
2022-10-31T12:32:22.302Z,22.20
2022-10-31T12:33:46.696Z,22.18
2022-10-31T12:35:20.610Z,22.17
2022-10-31T12:36:45.094Z,22.15
2022-10-31T12:37:53.828Z,22.16
2022-10-31T12:39:14.212Z,22.14
2022-10-31T12:40:26.123Z,22.17
2022-10-31T12:41:48.603Z,22.16
2022-10-31T12:43:04.401Z,21.41
2022-10-31T12:44:22.585Z,22.19
2022-10-31T12:45:46.033Z,22.42
2022-10-31T12:47:01.532Z,22.46
2022-10-31T12:48:19.657Z,22.47
2022-10-31T12:49:32.241Z,22.38
2022-10-31T12:50:51.845Z,22.41
2022-10-31T12:52:19.840Z,22.56
2022-10-31T12:53:28.822Z,22.47
2022-10-31T12:54:47.032Z,22.42
2022-10-31T12:56:03.231Z,22.33
2022-10-31T12:57:15.963Z,22.23
2022-10-31T12:58:30.330Z,21.70
2022-10-31T12:59:46.429Z,21.63
2022-10-31T13:00:49.829Z,22.22
2022-10-31T13:02:05.719Z,21.50
2022-10-31T13:03:50.508Z,22.31
2022-10-31T13:04:58.983Z,21.49
2022-10-31T13:06:03.501Z,22.06
2022-10-31T13:07:09.321Z,22.45
2022-10-31T13:08:08.336Z,21.52
2022-10-31T13:09:16.225Z,22.19
2022-10-31T13:10:29.545Z,21.48
2022-10-31T13:11:33.449Z,22.40
2022-10-31T13:12:37.384Z,22.40
2022-10-31T13:13:46.443Z,22.29
2022-10-31T13:15:02.463Z,22.14
2022-10-31T13:16:12.643Z,22.23
2022-10-31T13:17:23.499Z,22.03
2022-10-31T13:18:36.132Z,21.77
2022-10-31T13:19:40.317Z,21.96
2022-10-31T13:20:54.605Z,22.14
2022-10-31T13:22:15.831Z,21.42
2022-10-31T13:23:49.782Z,22.31
2022-10-31T13:24:54.480Z,22.34
2022-10-31T13:25:56.729Z,20.07
2022-10-31T13:26:58.773Z,22.29
2022-10-31T13:28:01.886Z,22.34